Terminal Aerodrome Forecast
Issued by NWS Chicago, IL

Home | Current Version | Previous Version | Graphics & Text | Print | Product List | Glossary On
Versions: 1 2 3 4 5 6 7 8 9 10 11 12 13 14 15 16 17 18 19 20 21 22 23 24 25 26 27
629
FTUS43 KLOT 250539
TAFRFD
TAF
KRFD 250539Z 2506/2606 05012G18KT 6SM -RA BR SCT007 BKN010 OVC045
     FM250800 05012KT 5SM -RA BR OVC007
     FM251000 05013G19KT 2SM -SHRA BR SCT004 OVC006
     FM251600 07017G24KT 3SM -RADZ BR OVC006
     FM260000 09009KT 2SM -RADZ BR BKN007 OVC010=

USA.gov is the U.S. government's official web portal to all federal, state and local government web resources and services.